Weather observations for the past three days for
Alma, Gratiot Community Airport
Imperial (Metric)
Date Time (edt) Wind (mph) Vis. (mi.) Weather Sky Cond. Temperature (ºF) Relative Humidity Wind Chill (°F) Heat Index (°F) Pressure Precipitation (in)
Air Dwpt 6 hour altimeter (in) sea level (mb) 1 hr 3 hr 6 hr
Max. Min.
06 09:35 E 3 8.00 Mostly Cloudy BKN024 42.8 32 66% 29.91 0.0
06 09:15 NE 5 10.00 Mostly Cloudy BKN024 41 30.2 66% 38 29.91 0.0
06 08:55 NE 7 10.00 Mostly Cloudy BKN024 41 30.2 66% 37 29.9 0.0
06 08:35 NE 8 10.00 Overcast OVC022 41 30.2 66% 36 29.9 0.0
06 08:15 NE 10 10.00 Overcast OVC018 41 32 70% 35 29.88 0.0
06 07:55 NE 8 10.00 Overcast OVC018 39.2 32 43.9 36.9 75% 34 29.87 0.0
06 07:36 NE 9 10.00 Mostly Cloudy BKN018 39.2 32 75% 34 29.86 0.0
06 07:15 N 6 10.00 A Few Clouds FEW018 37.4 32 81% 33 29.86 0.0
06 06:55 N 9 10.00 Fair CLR 37.4 32 81% 31 29.86 0.0
06 06:35 N 8 10.00 Fair CLR 37.4 32 81% 32 29.84 0.0
06 06:15 N 6 10.00 Fair CLR 37.4 28.4 70% 33 29.84 0.0
06 05:55 NW 6 10.00 Fair CLR 39.2 28.4 65% 36 29.82 0.0
06 05:35 NW 6 10.00 Fair CLR 39.2 28.4 65% 36 29.81 0.0
06 05:16 NW 6 10.00 Fair CLR 41 28.4 61% 38 29.81 0.0
06 04:55 NW 5 10.00 Fair CLR 41 30.2 66% 38 29.81 0.0
06 04:35 NW 6 10.00 Fair CLR 42.8 28.4 57% 40 29.81 0.0
06 04:15 NW 7 10.00 Fair CLR 42.8 28.4 57% 39 29.81 0.0
06 03:55 NW 7 10.00 Fair CLR 41 30.2 66% 37 29.8 0.0
06 03:35 W 6 10.00 Fair CLR 42.8 30.2 61% 40 29.8 0.0
06 03:15 NW 6 10.00 Fair CLR 42.8 28.4 57% 40 29.8 0.0
06 02:56 NW 7 10.00 Fair CLR 42.8 30.2 61% 39 29.8 0.0
06 02:35 NW 6 10.00 Fair CLR 42.8 30.2 61% 40 29.81 0.0
06 02:15 NW 6 10.00 Fair CLR 44.6 28.4 53% 42 29.81 0.0
06 01:55 W 8 10.00 Fair CLR 42.8 30.2 51.8 41.7 61% 39 29.82 0.0
06 01:35 NW 6 10.00 Fair CLR 41 30.2 66% 38 29.8 0.0
06 01:15 NW 5 10.00 Fair CLR 42.8 30.2 61% 41 29.81 0.0
06 00:55 NW 5 10.00 Fair CLR 44.6 28.4 53% 43 29.8 0.0
06 00:36 NW 5 10.00 Fair CLR 44.6 28.4 53% 43 29.8 0.0
06 00:15 NW 6 10.00 Fair CLR 44.6 28.4 53% 42 29.79 0.0
05 23:55 NW 6 10.00 Fair CLR 44.6 28.4 53% 42 29.79 0.0
05 23:35 NW 7 10.00 Fair CLR 44.6 30.2 57% 41 29.8 0.0
05 23:15 NW 6 10.00 Fair CLR 44.6 32 61% 42 29.79 0.0
05 22:55 W 6 10.00 Fair CLR 44.6 32 61% 42 29.79 0.0
05 22:35 NW 5 10.00 Fair CLR 44.6 30.2 57% 43 29.78 0.0
05 22:16 NW 5 10.00 Fair CLR 46.4 30.2 53% 45 29.78 0.0
05 21:55 NW 5 10.00 Fair CLR 46.4 30.2 53% 45 29.78 0.0
05 21:35 NW 5 10.00 Fair CLR 48.2 30.2 50% 47 29.77 0.0
05 21:15 NW 5 10.00 Fair CLR 48.2 30.2 50% 47 29.76 0.0
05 20:55 W 5 10.00 Fair CLR 50 30.2 47% 49 29.76 0.0
05 20:35 W 6 10.00 Fair CLR 50 30.2 47% 48 29.75 0.0
05 20:15 W 9 10.00 Fair CLR 51.8 28.4 41% 29.75 0.0
05 19:56 W 10 10.00 Fair CLR 51.8 28.4 41% 29.75 0.0
05 19:35 W 13 10.00 Fair CLR 51.8 28.4 41% 29.74 0.0
05 19:15 W 13 10.00 Fair CLR 53.6 28.4 38% 29.74 0.0
05 18:55 W 14 10.00 Fair CLR 53.6 28.4 38% 29.74 0.0
05 18:35 W 13 10.00 Fair CLR 53.6 26.6 35% 29.73 0.0
05 18:15 W 14 G 20 10.00 Fair CLR 55.4 28.4 36% 29.74 0.0
05 17:55 W 15 10.00 Fair CLR 55.4 28.4 36% 29.73 0.0
05 17:36 W 13 G 20 10.00 Fair CLR 55.4 28.4 36% 29.73 0.0
05 17:15 W 10 G 20 10.00 Fair CLR 57.2 26.6 31% 29.73 0.0
05 16:55 W 13 G 18 10.00 Fair CLR 57.2 24.8 29% 29.73 0.0
05 16:35 W 18 10.00 Fair CLR 57.2 26.6 31% 29.73 0.0
05 16:15 W 13 G 18 10.00 Fair CLR 59 26.6 29% 29.72 0.0
05 15:55 W 16 G 21 10.00 Fair CLR 59 26.6 29% 29.72 0.0
05 15:35 W 13 G 24 10.00 Fair CLR 59 26.6 29% 29.72 0.0
05 15:16 W 14 G 21 10.00 Fair CLR 59 26.6 29% 29.71 0.0
05 14:55 NW 15 G 23 10.00 Fair CLR 57.2 24.8 29% 29.71 0.0
05 14:35 W 9 G 25 10.00 Fair CLR 57.2 28.4 33% 29.72 0.0
05 14:15 W 14 G 24 10.00 Fair CLR 59 28.4 31% 29.72 0.0
05 13:55 W 15 G 23 10.00 Fair CLR 57.2 28.4 58.6 48.4 33% 29.71 0.0
05 13:35 W 16 G 24 10.00 Fair CLR 57.2 28.4 33% 29.7 0.0
05 13:15 W 17 G 22 10.00 A Few Clouds FEW055 57.2 32 39% 29.71 0.0
05 12:56 W 13 G 23 10.00 Fair CLR 57.2 33.8 41% 29.71 0.0
05 12:35 W 15 G 23 10.00 Partly Cloudy SCT048 SCT050 57.2 33.8 41% 29.7 0.0
05 12:15 W 10 G 20 10.00 Mostly Cloudy SCT047 BKN050 55.4 35.6 47% 29.71 0.0
05 11:55 W 17 G 26 10.00 Partly Cloudy SCT047 SCT055 57.2 37.4 48% 29.72 0.0
05 11:35 W 13 G 18 10.00 Partly Cloudy SCT045 55.4 35.6 47% 29.72 0.0
05 11:15 W 10 10.00 Fair CLR 53.6 35.6 51% 29.72 0.0
05 10:55 W 8 10.00 Fair CLR 53.6 35.6 51% 29.71 0.0
05 10:36 W 12 10.00 Fair CLR 51.8 35.6 54% 29.71 0.0
05 10:15 W 7 10.00 A Few Clouds FEW044 51.8 35.6 54% 29.7 0.0
05 09:55 W 6 10.00 Mostly Cloudy BKN044 51.8 35.6 54% 29.71 0.0
05 09:35 NW 5 10.00 Overcast OVC042 51.8 35.6 54% 29.7 0.0
05 09:15 Vrbl 3 10.00 Overcast OVC040 50 35.6 58% 29.7 0.0
05 08:55 W 3 10.00 Mostly Cloudy BKN038 51.8 35.6 54% 29.67 0.0
05 08:35 N 7 10.00 Fair CLR 50 35.6 58% 48 29.65 0.0
05 08:16 NW 5 10.00 Fair CLR 50 39.2 67% 49 29.66 0.0
05 07:55 NW 7 10.00 Fair CLR 48.2 37.4 60.8 45.1 66% 46 29.66 0.0
05 07:35 N 5 10.00 A Few Clouds FEW023 48.2 37.4 66% 47 29.64 0.0
05 07:15 N 7 10.00 Mostly Cloudy BKN021 46.4 35.6 66% 43 29.64 0.0
05 06:55 N 6 10.00 Partly Cloudy SCT019 SCT110 46.4 37.4 71% 44 29.63 0.0
05 06:35 NW 6 10.00 A Few Clouds FEW110 46.4 37.4 71% 44 29.62 0.0
05 06:15 N 6 10.00 Fair CLR 48.2 37.4 66% 46 29.6 0.0
05 05:56 N 9 10.00 Partly Cloudy SCT110 48.2 37.4 66% 45 29.6 0.0
05 05:35 N 13 10.00 Mostly Cloudy BKN120 50 39.2 67% 46 29.58 0.0
05 05:15 W 8 10.00 Partly Cloudy SCT120 53.6 39.2 58% 29.55 0.0
05 04:55 W 8 10.00 Partly Cloudy SCT110 53.6 41 63% 29.54 0.0
05 04:35 W 8 10.00 Partly Cloudy SCT110 53.6 41 63% 29.54 0.0
05 04:15 W 7 10.00 Mostly Cloudy BKN110 55.4 41 59% 29.52 0.0
05 03:55 W 8 10.00 Mostly Cloudy BKN100 55.4 42.8 63% 29.52 0.0
05 03:36 W 8 10.00 Overcast OVC100 57.2 42.8 59% 29.52 0.0
05 03:15 W 9 10.00 Mostly Cloudy BKN100 57.2 44.6 63% 29.52 0.0
05 02:55 W 8 10.00 Fair CLR 59 44.6 59% 29.5 0.0
05 02:35 W 10 10.00 Fair CLR 59 46.4 63% 29.5 0.0
05 02:15 W 8 10.00 Fair CLR 60.8 50 68% 29.49 0.0
05 01:55 SW 7 10.00 Fair CLR 60.8 50 71.1 60.8 68% 29.49 0.0
05 01:35 SW 10 10.00 Fair CLR 60.8 50 68% 29.49 0.0
05 01:16 SW 10 G 18 10.00 Fair CLR 62.6 50 64% 29.48 0.0
05 00:55 SW 16 G 23 10.00 Partly Cloudy SCT080 SCT090 62.6 50 64% 29.48 0.0
05 00:35 SW 13 G 20 10.00 Partly Cloudy SCT080 SCT095 64.4 50 60% 29.48 0.0
05 00:15 W 16 10.00 Fair CLR 64.4 50 60% 29.48 0.0
04 23:55 W 13 G 21 10.00 A Few Clouds FEW120 64.4 51.8 64% 29.46 0.0
04 23:35 SW 12 10.00 Mostly Cloudy SCT080 BKN120 64.4 53.6 68% 29.45 0.0
04 23:15 SW 15 G 22 10.00 Light Rain BKN080 BKN100 64.4 53.6 68% 29.44 0.0
04 22:56 SW 21 G 36 10.00 A Few Clouds and Breezy FEW100 68 48.2 49% 29.45 0.0
04 22:35 SW 14 G 24 10.00 Fair CLR 68 50 53% 29.43 0.0
04 22:15 S 16 G 22 10.00 A Few Clouds FEW100 66.2 46.4 49% 29.42 0.0
04 21:55 SW 10 10.00 Fair CLR 66.2 44.6 46% 29.43 0.0
04 21:35 SW 8 10.00 Fair CLR 64.4 42.8 46% 29.42 0.0
04 21:15 SW 10 10.00 Fair CLR 66.2 42.8 43% 29.42 0.0
04 20:55 SW 10 10.00 Fair CLR 66.2 42.8 43% 29.42 0.0
04 20:36 SW 9 10.00 Fair CLR 68 41 38% 29.42 0.0
04 20:15 SW 12 10.00 Fair CLR 69.8 41 35% 29.42 0.0
04 19:55 SW 13 G 18 10.00 Fair CLR 71.6 39.2 75.4 70.9 31% 29.42 0.0
04 19:35 SW 12 10.00 Fair CLR 71.6 39.2 31% 29.43 0.0
04 19:15 SW 12 G 24 10.00 Fair CLR 71.6 39.2 31% 29.44 0.0
04 18:55 SW 14 G 21 10.00 Fair CLR 71.6 39.2 31% 29.45 0.0
04 18:35 W 16 G 22 10.00 Fair CLR 73.4 37.4 27% 29.46 0.0
04 17:55 SW 20 G 28 10.00 Fair CLR 73.4 37.4 27% 29.47 0.0
04 17:35 SW 22 G 30 10.00 Fair and Breezy CLR 73.4 37.4 27% 29.47 0.0
04 17:15 SW 20 G 30 10.00 Fair CLR 75.2 35.6 24% 76 29.48 0.0
04 16:55 W 20 G 28 10.00 Fair CLR 73.4 33.8 23% 29.48 0.0
04 16:35 W 20 G 30 10.00 Fair CLR 75.2 33.8 22% 76 29.48 0.0
04 16:15 W 21 G 30 10.00 Fair and Breezy CLR 73.4 33.8 23% 29.49 0.0
04 15:56 W 20 G 29 10.00 Fair CLR 75.2 33.8 22% 76 29.49 0.0
04 15:35 W 21 G 36 10.00 Fair and Breezy CLR 73.4 32 22% 29.49 0.0
04 15:15 W 21 G 32 10.00 Fair and Breezy CLR 73.4 32 22% 29.49 0.0
04 14:55 SW 17 G 31 10.00 Fair CLR 73.4 32 22% 29.5 0.0
04 14:35 W 21 G 33 10.00 Fair and Breezy CLR 75.2 33.8 22% 76 29.5 0.0
04 14:15 SW 18 G 35 10.00 Fair CLR 73.4 32 22% 29.51 0.0
04 13:55 SW 20 G 33 10.00 Fair CLR 73.4 32 74.1 49.6 22% 29.51 0.0
04 13:36 SW 20 G 28 10.00 Fair CLR 73.4 35.6 25% 29.52 0.0
04 13:15 SW 22 G 32 10.00 Fair and Breezy CLR 73.4 33.8 23% 29.53 0.0
04 12:55 SW 18 G 35 10.00 Fair CLR 71.6 35.6 27% 29.53 0.0
04 12:35 W 24 G 28 10.00 Fair and Breezy CLR 71.6 37.4 29% 29.54 0.0
04 12:15 SW 14 G 21 10.00 Fair CLR 71.6 44.6 38% 29.55 0.0
04 11:55 SW 17 G 23 10.00 Fair CLR 69.8 44.6 40% 29.56 0.0
04 11:35 SW 15 10.00 Fair CLR 68 46.4 46% 29.57 0.0
04 11:16 S 14 G 17 10.00 Fair CLR 66.2 46.4 49% 29.58 0.0
04 10:55 SW 13 G 18 10.00 Fair CLR 64.4 46.4 52% 29.59 0.0
04 10:35 SW 12 G 20 10.00 Fair CLR 62.6 46.4 56% 29.59 0.0
04 10:15 S 13 10.00 Fair CLR 60.8 46.4 59% 29.6 0.0
04 09:55 SW 10 10.00 Fair CLR 59 46.4 63% 29.6 0.0
04 09:35 SW 15 G 18 10.00 Fair CLR 57.2 46.4 67% 29.61 0.0
04 09:15 SW 10 10.00 Fair CLR 55.4 44.6 67% 29.61 0.0
04 08:56 SW 13 6.00 Fair with Haze CLR 53.6 44.6 72% 29.61 0.0
04 08:35 SW 13 0.15 Sky Obscured with Haze VV000 51.8 44.6 77% 29.61 0.0
04 08:15 SW 12 10.00 Fair CLR 51.8 44.6 77% 29.61 0.0
04 07:55 S 12 10.00 Fair CLR 50 42.8 49.6 45.7 76% 46 29.61 0.0
04 07:35 SW 10 G 16 10.00 Fair CLR 48.2 42.8 82% 44 29.61 0.0
04 07:15 SW 9 10.00 Fair CLR 48.2 42.8 82% 45 29.61 0.0
04 06:55 SW 8 10.00 Fair CLR 46.4 42.8 87% 43 29.61 0.0
04 06:36 S 9 10.00 Fair CLR 46.4 41 82% 42 29.6 0.0
04 06:15 S 10 10.00 Fair CLR 46.4 41 82% 42 29.61 0.0
04 05:55 SW 8 10.00 Fair CLR 46.4 41 82% 43 29.61 0.0
04 05:35 SW 9 10.00 Fair CLR 46.4 41 82% 42 29.62 0.0
04 05:15 SW 7 10.00 Fair CLR 46.4 41 82% 43 29.62 0.0
04 04:55 SW 8 10.00 Fair CLR 46.4 42.8 87% 43 29.62 0.0
04 04:35 SW 8 10.00 Fair CLR 46.4 41 82% 43 29.62 0.0
04 04:16 SW 8 10.00 Fair CLR 48.2 42.8 82% 45 29.62 0.0
04 03:55 SW 8 10.00 Fair CLR 48.2 42.8 82% 45 29.63 0.0
04 03:35 SW 10 10.00 Fair CLR 48.2 41 76% 44 29.63 0.0
04 03:15 SW 10 10.00 Fair CLR 48.2 41 76% 44 29.64 0.0
04 02:55 SW 10 10.00 Fair CLR 48.2 41 76% 44 29.64 0.0
04 02:35 SW 12 10.00 Fair CLR 48.2 41 76% 44 29.65 0.0
04 02:15 S 10 10.00 Fair CLR 48.2 41 76% 44 29.66 0.0
04 01:56 SW 12 10.00 Fair CLR 48.2 41 76% 44 29.66 0.0
04 01:35 SW 12 10.00 Fair CLR 48.2 41 76% 44 29.67 0.0
04 01:15 SW 10 10.00 Fair CLR 50 41 71% 46 29.68 0.0
04 00:55 SW 10 10.00 Fair CLR 48.2 41 76% 44 29.69 0.0
04 00:35 SW 14 10.00 Fair CLR 48.2 41 76% 43 29.69 0.0
04 00:15 SW 10 10.00 Fair CLR 50 41 71% 46 29.69 0.0
03 23:55 S 13 10.00 Fair CLR 50 41 71% 46 29.69 0.0
03 23:36 S 14 G 20 10.00 Fair CLR 50 39.2 67% 45 29.7 0.0
03 23:15 S 13 G 18 10.00 Fair CLR 50 39.2 67% 46 29.7 0.0
03 22:55 SW 14 10.00 Fair CLR 50 39.2 67% 45 29.71 0.0
03 22:35 SW 13 10.00 Fair CLR 50 39.2 67% 46 29.71 0.0
03 22:15 SW 12 10.00 Fair CLR 50 39.2 67% 46 29.72 0.0
03 21:55 S 13 10.00 Fair CLR 50 39.2 67% 46 29.72 0.0
03 21:35 SW 12 10.00 A Few Clouds FEW065 51.8 39.2 62% 29.72 0.0
03 21:16 SW 13 10.00 Mostly Cloudy BKN065 51.8 39.2 62% 29.72 0.0
03 20:55 SW 12 G 18 10.00 Overcast OVC065 51.8 39.2 62% 29.72 0.0
03 20:35 SW 13 10.00 Mostly Cloudy BKN065 51.8 39.2 62% 29.72 0.0
03 20:15 SW 17 10.00 Fair CLR 53.6 39.2 58% 29.72 0.0
03 19:55 SW 16 G 26 10.00 Fair CLR 55.4 39.2 63 54.7 55% 29.72 0.0
03 19:35 SW 17 G 22 10.00 Fair CLR 55.4 39.2 55% 29.72 0.0
03 19:15 SW 15 G 25 10.00 Fair CLR 57.2 39.2 51% 29.73 0.0
03 18:56 SW 17 G 25 10.00 Fair CLR 57.2 41 55% 29.74 0.0
03 18:35 SW 23 G 29 10.00 A Few Clouds and Breezy FEW090 57.2 39.2 51% 29.74 0.0
03 18:15 SW 16 G 24 10.00 Overcast OVC090 59 39.2 48% 29.75 0.0
03 17:55 SW 22 G 30 10.00 Overcast and Breezy OVC080 57.2 39.2 51% 29.75 0.0
03 17:35 SW 18 G 25 10.00 Overcast SCT060 OVC080 55.4 37.4 51% 29.76 0.0
03 17:15 SW 15 G 25 10.00 Overcast BKN060 OVC070 55.4 37.4 51% 29.76 0.0
03 16:55 W 25 G 33 10.00 Overcast and Breezy BKN060 BKN075 OVC085 57.2 37.4 48% 29.77 0.0
03 16:36 W 24 G 35 10.00 Mostly Cloudy and Breezy FEW060 BKN080 60.8 39.2 45% 29.76 0.0
03 16:15 SW 24 G 38 10.00 Partly Cloudy and Breezy FEW060 SCT090 62.6 37.4 39% 29.75 0.0
03 15:55 SW 20 G 35 10.00 A Few Clouds FEW060 62.6 37.4 39% 29.76 0.0
03 15:35 SW 20 G 36 10.00 A Few Clouds FEW055 62.6 37.4 39% 29.76 0.0
03 15:15 W 22 G 31 10.00 Partly Cloudy and Breezy SCT055 62.6 37.4 39% 29.77 0.0
03 14:55 SW 20 G 29 10.00 Partly Cloudy SCT055 62.6 39.2 42% 29.78 0.0
03 14:35 SW 20 G 31 10.00 Mostly Cloudy SCT055 BKN070 62.6 39.2 42% 29.78 0.0
03 14:16 W 18 G 29 10.00 Overcast BKN055 OVC070 60.8 39.2 45% 29.79 0.0
03 13:55 W 22 G 33 10.00 Mostly Cloudy and Breezy BKN055 BKN070 60.8 39.2 61.9 44.1 45% 29.79 0.0
03 13:35 W 23 G 28 10.00 A Few Clouds and Breezy FEW055 60.8 39.2 45% 29.8 0.0
03 13:15 W 17 G 26 10.00 Fair CLR 60.8 39.2 45% 29.81 0.0
03 12:55 SW 21 G 28 10.00 Fair and Breezy CLR 59 37.4 45% 29.81 0.0
03 12:35 SW 20 G 26 10.00 A Few Clouds FEW120 59 35.6 42% 29.82 0.0
03 12:15 SW 16 G 23 10.00 Mostly Cloudy SCT085 BKN120 57.2 35.6 44% 29.83 0.0
03 11:56 W 14 G 25 10.00 Mostly Cloudy BKN085 BKN100 59 35.6 42% 29.84 0.0
03 11:35 W 15 G 24 10.00 A Few Clouds FEW095 FEW120 57.2 35.6 44% 29.84 0.0
03 11:15 W 14 G 18 10.00 Fair CLR 57.2 33.8 41% 29.84 0.0
03 10:55 SW 18 G 24 10.00 Partly Cloudy SCT080 55.4 33.8 44% 29.85 0.0
03 10:35 SW 15 G 22 10.00 Mostly Cloudy BKN080 BKN110 55.4 35.6 47% 29.85 0.0
03 10:15 SW 13 10.00 Mostly Cloudy BKN090 BKN110 51.8 33.8 50% 29.86 0.0
03 09:55 SW 10 G 16 10.00 Overcast OVC090 50 33.8 54% 46 29.86 0.0
Date Time (edt) Wind (mph) Vis. (mi.) Weather Sky Cond. Air Dwpt Max. Min. Relative Humidity Wind Chill (°F) Heat Index (°F) altimeter (in) sea level (mb) 1 hr 3 hr 6 hr
6 hour
Temperature (ºF) Pressure Precipitation (in)